Time;durP1;ratioP1;P1;durP2;ratioP2;P2;SDS_P1;SDS_P2;PMS_P1;PMS_P2;Temp;Humidity;BMP_temperature;BMP_pressure;BME280_temperature;BME280_humidity;BME280_pressure;Samples;Min_cycle;Max_cycle;Signal;HPM_P1;HPM_P2
2023/12/14 00:00:25;;;;;;;1.27;1.07;;;;;;;;;;5001356;28;20214;-29
2023/12/14 00:02:52;;;;;;;1.37;1.07;;;;;;;;;;5028544;28;20206;-27
2023/12/14 00:05:19;;;;;;;0.80;0.80;;;;;;;;;;5023389;28;20222;-27
2023/12/14 00:07:48;;;;;;;2.30;1.10;;;;;;;;;;5009395;28;20204;-26
2023/12/14 00:10:17;;;;;;;2.47;1.37;;;;;;;;;;5013152;28;20208;-25
2023/12/14 00:12:45;;;;;;;3.90;2.37;;;;;;;;;;5012244;28;20234;-29
2023/12/14 00:15:12;;;;;;;1.30;1.20;;;;;;;;;;5006295;28;20233;-28
2023/12/14 00:17:38;;;;;;;1.33;1.10;;;;;;;;;;5020142;28;20208;-28
2023/12/14 00:20:06;;;;;;;1.93;1.20;;;;;;;;;;5020640;28;20215;-30
2023/12/14 00:22:33;;;;;;;1.50;1.40;;;;;;;;;;5010353;28;20207;-30
2023/12/14 00:25:02;;;;;;;1.73;1.00;;;;;;;;;;5017371;28;20226;-30
2023/12/14 00:27:29;;;;;;;2.97;1.13;;;;;;;;;;5020347;28;20669;-27
2023/12/14 00:29:56;;;;;;;1.07;1.07;;;;;;;;;;5001221;28;20204;-27
2023/12/14 00:32:23;;;;;;;2.30;1.57;;;;;;;;;;5011975;28;20215;-28
2023/12/14 00:34:50;;;;;;;2.17;1.30;;;;;;;;;;5011727;28;20223;-26
2023/12/14 00:37:17;;;;;;;1.40;1.30;;;;;;;;;;5019885;28;20216;-27
2023/12/14 00:39:45;;;;;;;1.60;1.30;;;;;;;;;;5003586;28;20211;-29
2023/12/14 00:42:13;;;;;;;1.80;1.70;;;;;;;;;;5019086;28;20206;-29
2023/12/14 00:44:40;;;;;;;2.27;1.70;;;;;;;;;;5002618;28;20233;-31
2023/12/14 00:47:07;;;;;;;1.57;1.27;;;;;;;;;;5003786;28;20214;-28
2023/12/14 00:49:34;;;;;;;2.93;2.40;;;;;;;;;;5003327;28;20212;-28
2023/12/14 00:52:04;;;;;;;2.10;1.47;;;;;;;;;;4997518;28;20231;-27
2023/12/14 00:54:31;;;;;;;1.73;1.30;;;;;;;;;;5003340;28;20222;-28
2023/12/14 00:56:58;;;;;;;1.30;1.20;;;;;;;;;;5005993;28;20695;-29
2023/12/14 00:59:27;;;;;;;1.33;1.23;;;;;;;;;;5003217;28;20213;-28
2023/12/14 01:01:54;;;;;;;1.80;1.70;;;;;;;;;;5003645;28;20284;-27
2023/12/14 01:04:21;;;;;;;1.73;1.63;;;;;;;;;;5024973;28;20226;-28
2023/12/14 01:06:48;;;;;;;1.60;1.50;;;;;;;;;;5018336;28;20227;-29
2023/12/14 01:09:14;;;;;;;1.20;1.20;;;;;;;;;;5000833;28;20217;-29
2023/12/14 01:11:41;;;;;;;2.03;1.50;;;;;;;;;;5013512;28;20192;-30
2023/12/14 01:14:09;;;;;;;1.43;1.33;;;;;;;;;;5011478;28;20230;-26
2023/12/14 01:16:38;;;;;;;1.40;1.30;;;;;;;;;;5014182;28;20206;-27
2023/12/14 01:19:05;;;;;;;1.40;1.30;;;;;;;;;;5013674;28;20211;-26
2023/12/14 01:21:32;;;;;;;2.13;1.90;;;;;;;;;;5015069;28;20253;-28
2023/12/14 01:24:00;;;;;;;1.53;1.43;;;;;;;;;;5009655;28;20242;-28
2023/12/14 01:26:27;;;;;;;1.20;1.20;;;;;;;;;;5022187;28;20233;-29
2023/12/14 01:28:54;;;;;;;1.37;1.30;;;;;;;;;;5006185;28;20291;-29
2023/12/14 01:31:24;;;;;;;2.00;1.50;;;;;;;;;;5009568;28;20503;-27
2023/12/14 01:33:52;;;;;;;1.57;1.47;;;;;;;;;;5010868;28;20234;-27
2023/12/14 01:36:23;;;;;;;1.87;1.63;;;;;;;;;;5011777;28;20207;-28
2023/12/14 01:38:50;;;;;;;1.77;1.30;;;;;;;;;;5003893;28;20213;-28
2023/12/14 01:41:17;;;;;;;1.87;1.70;;;;;;;;;;5003437;28;20225;-29
2023/12/14 01:43:45;;;;;;;1.60;1.50;;;;;;;;;;5010503;28;20204;-29
2023/12/14 01:46:12;;;;;;;1.67;1.57;;;;;;;;;;5008695;28;20227;-28
2023/12/14 01:48:40;;;;;;;1.97;1.60;;;;;;;;;;5023323;28;20202;-29
2023/12/14 01:51:08;;;;;;;3.00;2.10;;;;;;;;;;5029333;28;20213;-29
2023/12/14 01:53:35;;;;;;;2.20;2.00;;;;;;;;;;5009861;28;20598;-29
2023/12/14 01:56:03;;;;;;;2.03;1.80;;;;;;;;;;5011218;28;20211;-27
2023/12/14 01:58:30;;;;;;;2.50;2.30;;;;;;;;;;5013560;28;20205;-28
2023/12/14 02:01:02;;;;;;;2.60;2.27;;;;;;;;;;5002923;28;20212;-29
2023/12/14 02:03:29;;;;;;;1.80;1.67;;;;;;;;;;5006946;28;20198;-30
2023/12/14 02:05:57;;;;;;;2.30;1.90;;;;;;;;;;5012785;28;20234;-28
2023/12/14 02:08:26;;;;;;;6.10;3.53;;;;;;;;;;5012732;28;20207;-30
2023/12/14 02:10:53;;;;;;;2.07;1.90;;;;;;;;;;4996590;28;20547;-28
2023/12/14 02:13:20;;;;;;;2.17;2.07;;;;;;;;;;5012338;28;20207;-29
2023/12/14 02:15:48;;;;;;;2.57;2.37;;;;;;;;;;5017084;28;20219;-28
2023/12/14 02:18:15;;;;;;;2.90;1.83;;;;;;;;;;5009304;28;20289;-27
2023/12/14 02:20:42;;;;;;;2.20;1.97;;;;;;;;;;5018953;28;20221;-28
2023/12/14 02:23:11;;;;;;;2.20;1.90;;;;;;;;;;5003124;28;20227;-28
2023/12/14 02:25:38;;;;;;;2.13;1.80;;;;;;;;;;5018206;28;20223;-28
2023/12/14 02:28:05;;;;;;;2.27;2.10;;;;;;;;;;5007729;28;20215;-28
2023/12/14 02:30:32;;;;;;;3.33;1.83;;;;;;;;;;5010517;28;20207;-29
2023/12/14 02:32:59;;;;;;;2.00;1.90;;;;;;;;;;5013074;28;20216;-26
2023/12/14 02:35:26;;;;;;;1.80;1.70;;;;;;;;;;5017880;28;20226;-25
2023/12/14 02:37:54;;;;;;;1.70;1.60;;;;;;;;;;5003690;28;20203;-26
2023/12/14 02:40:23;;;;;;;1.87;1.77;;;;;;;;;;5000883;28;20208;-28
2023/12/14 02:42:50;;;;;;;1.97;1.87;;;;;;;;;;5017247;28;20211;-27
2023/12/14 02:45:17;;;;;;;3.50;2.00;;;;;;;;;;4999343;28;20623;-28
2023/12/14 02:47:46;;;;;;;2.43;2.23;;;;;;;;;;5016257;28;20211;-28
2023/12/14 02:50:13;;;;;;;2.57;2.23;;;;;;;;;;5002341;28;20289;-28
2023/12/14 02:52:40;;;;;;;2.40;2.20;;;;;;;;;;5013293;28;20210;-29
2023/12/14 02:55:09;;;;;;;2.50;2.30;;;;;;;;;;5029741;28;20230;-27
2023/12/14 02:57:37;;;;;;;2.00;1.90;;;;;;;;;;5014257;28;20207;-26
2023/12/14 03:00:05;;;;;;;2.57;2.37;;;;;;;;;;5008479;28;20217;-28
2023/12/14 03:05:36;;;;;;;2.63;2.20;;;;;;;;;;4992861;28;20723;-28
2023/12/14 03:08:03;;;;;;;2.43;2.10;;;;;;;;;;5001617;28;20231;-28
2023/12/14 03:10:30;;;;;;;3.00;2.80;;;;;;;;;;5002157;28;20207;-27
2023/12/14 03:12:59;;;;;;;3.97;2.30;;;;;;;;;;5004780;28;20239;-28
2023/12/14 03:15:26;;;;;;;2.13;2.00;;;;;;;;;;5002215;28;20246;-29
2023/12/14 03:17:53;;;;;;;2.83;2.47;;;;;;;;;;5009784;28;20265;-29
2023/12/14 03:20:20;;;;;;;2.80;2.47;;;;;;;;;;5000138;28;20209;-30
2023/12/14 03:22:48;;;;;;;3.40;2.13;;;;;;;;;;5008671;28;20217;-31
2023/12/14 03:25:15;;;;;;;2.80;2.50;;;;;;;;;;5008592;28;20227;-26
2023/12/14 03:27:42;;;;;;;3.43;3.13;;;;;;;;;;4997392;28;20236;-27
2023/12/14 03:30:11;;;;;;;3.77;3.37;;;;;;;;;;4995097;28;20295;-26
2023/12/14 03:32:39;;;;;;;3.40;3.10;;;;;;;;;;5008429;28;20234;-27
2023/12/14 03:35:08;;;;;;;3.87;2.50;;;;;;;;;;5000810;28;20736;-27
2023/12/14 03:37:35;;;;;;;2.97;2.77;;;;;;;;;;5007674;28;20196;-30
2023/12/14 03:40:03;;;;;;;3.63;3.33;;;;;;;;;;5008076;28;20262;-26
2023/12/14 03:42:30;;;;;;;3.27;2.97;;;;;;;;;;5007407;28;20218;-28
2023/12/14 03:44:57;;;;;;;3.60;2.87;;;;;;;;;;4999674;28;20242;-29
2023/12/14 03:47:26;;;;;;;2.77;2.50;;;;;;;;;;4997181;28;20231;-29
2023/12/14 03:49:53;;;;;;;3.67;3.37;;;;;;;;;;5001094;28;20207;-28
2023/12/14 03:52:20;;;;;;;3.60;3.30;;;;;;;;;;4995477;28;20208;-29
2023/12/14 03:54:48;;;;;;;2.97;2.73;;;;;;;;;;5001393;28;20227;-28
2023/12/14 03:57:15;;;;;;;3.63;3.20;;;;;;;;;;5007867;28;20266;-27
2023/12/14 03:59:42;;;;;;;3.47;3.17;;;;;;;;;;4997030;28;20207;-27
2023/12/14 04:02:09;;;;;;;3.20;3.00;;;;;;;;;;5004850;28;20207;-28
2023/12/14 04:04:37;;;;;;;3.40;2.77;;;;;;;;;;5002875;28;20231;-27
2023/12/14 04:07:05;;;;;;;3.47;3.17;;;;;;;;;;4999042;28;20242;-26
2023/12/14 04:09:32;;;;;;;3.23;2.93;;;;;;;;;;4999837;28;20203;-26
2023/12/14 04:11:59;;;;;;;3.87;3.40;;;;;;;;;;5008151;28;20238;-28
2023/12/14 04:14:26;;;;;;;3.87;3.10;;;;;;;;;;4996469;28;20235;-27
2023/12/14 04:16:53;;;;;;;3.60;3.30;;;;;;;;;;5007357;28;20203;-26
2023/12/14 04:19:21;;;;;;;3.40;3.10;;;;;;;;;;5008806;28;20204;-27
2023/12/14 04:21:50;;;;;;;3.50;3.20;;;;;;;;;;4997893;28;20203;-28
2023/12/14 04:24:17;;;;;;;3.63;3.27;;;;;;;;;;5010711;28;20231;-26
2023/12/14 04:26:44;;;;;;;5.70;3.37;;;;;;;;;;5011644;28;20235;-29
2023/12/14 04:29:11;;;;;;;3.87;3.30;;;;;;;;;;5001494;28;20298;-27
2023/12/14 04:31:39;;;;;;;3.83;3.53;;;;;;;;;;5000857;28;20554;-26
2023/12/14 04:34:11;;;;;;;3.13;2.83;;;;;;;;;;5010808;28;20223;-26
2023/12/14 04:36:38;;;;;;;3.70;3.40;;;;;;;;;;4995645;28;20209;-27
2023/12/14 04:39:07;;;;;;;4.23;3.43;;;;;;;;;;5006790;28;20211;-26
2023/12/14 04:41:34;;;;;;;5.17;4.00;;;;;;;;;;5011115;28;20235;-30
2023/12/14 04:44:01;;;;;;;4.80;3.47;;;;;;;;;;4998285;28;20223;-27
2023/12/14 04:46:28;;;;;;;4.17;3.67;;;;;;;;;;5006818;28;20224;-28
2023/12/14 04:48:56;;;;;;;3.50;3.20;;;;;;;;;;5014694;28;20208;-27
2023/12/14 04:51:23;;;;;;;5.20;4.27;;;;;;;;;;5008588;28;20641;-26
2023/12/14 04:53:50;;;;;;;4.07;3.67;;;;;;;;;;5011040;28;20227;-29
2023/12/14 04:56:18;;;;;;;5.00;4.03;;;;;;;;;;5010786;28;20207;-29
2023/12/14 04:58:45;;;;;;;5.03;4.30;;;;;;;;;;4997742;28;20208;-27
2023/12/14 05:01:13;;;;;;;4.93;3.63;;;;;;;;;;5000673;28;20291;-27
2023/12/14 05:03:40;;;;;;;4.13;3.50;;;;;;;;;;5010708;28;20207;-29
2023/12/14 05:06:07;;;;;;;4.50;3.70;;;;;;;;;;4995197;28;20215;-27
2023/12/14 05:08:35;;;;;;;5.33;3.67;;;;;;;;;;5003195;28;20208;-27
2023/12/14 05:11:03;;;;;;;4.57;3.97;;;;;;;;;;5009947;28;20219;-32
2023/12/14 05:13:31;;;;;;;5.00;3.20;;;;;;;;;;5003523;28;20221;-29
2023/12/14 05:15:58;;;;;;;6.90;3.80;;;;;;;;;;5004599;28;20215;-28
2023/12/14 05:18:25;;;;;;;5.20;3.13;;;;;;;;;;5026318;28;20218;-28
2023/12/14 05:20:52;;;;;;;4.17;3.77;;;;;;;;;;4998339;28;20203;-29
2023/12/14 05:23:19;;;;;;;4.90;4.33;;;;;;;;;;5009627;28;20217;-26
2023/12/14 05:25:47;;;;;;;3.97;3.63;;;;;;;;;;5026263;28;20227;-27
2023/12/14 05:28:14;;;;;;;4.47;4.07;;;;;;;;;;5007274;28;20235;-26
2023/12/14 05:30:43;;;;;;;4.37;3.83;;;;;;;;;;5012194;28;20276;-28
2023/12/14 05:33:10;;;;;;;3.70;3.33;;;;;;;;;;5029184;28;20230;-29
2023/12/14 05:35:37;;;;;;;6.37;3.40;;;;;;;;;;5004903;28;20806;-28
2023/12/14 05:38:04;;;;;;;4.30;3.63;;;;;;;;;;5000696;28;20234;-29
2023/12/14 05:40:32;;;;;;;5.90;4.20;;;;;;;;;;5027807;28;20230;-27
2023/12/14 05:42:59;;;;;;;3.90;3.57;;;;;;;;;;5019949;28;20257;-26
2023/12/14 05:45:26;;;;;;;4.30;3.90;;;;;;;;;;4999119;28;20234;-27
2023/12/14 05:47:54;;;;;;;4.27;3.87;;;;;;;;;;5010430;28;20238;-26
2023/12/14 05:50:22;;;;;;;4.53;4.00;;;;;;;;;;5006472;28;20220;-28
2023/12/14 05:52:49;;;;;;;3.80;3.13;;;;;;;;;;4996588;28;20203;-26
2023/12/14 05:55:21;;;;;;;4.03;3.63;;;;;;;;;;5009428;28;20289;-26
2023/12/14 05:57:48;;;;;;;8.30;4.67;;;;;;;;;;5009629;28;20226;-27
2023/12/14 06:00:15;;;;;;;4.43;4.03;;;;;;;;;;5002859;28;20235;-29
2023/12/14 06:02:42;;;;;;;5.73;3.83;;;;;;;;;;5005602;28;20214;-29
2023/12/14 06:05:11;;;;;;;4.20;3.80;;;;;;;;;;5003288;28;20219;-28
2023/12/14 06:07:38;;;;;;;6.00;4.10;;;;;;;;;;5007714;28;20223;-28
2023/12/14 06:10:06;;;;;;;4.40;4.00;;;;;;;;;;5010176;28;20214;-28
2023/12/14 06:12:33;;;;;;;3.53;3.23;;;;;;;;;;5010701;28;20207;-30
2023/12/14 06:15:00;;;;;;;5.23;4.70;;;;;;;;;;5010948;28;20234;-29
2023/12/14 06:17:27;;;;;;;5.73;4.30;;;;;;;;;;5026542;28;20881;-28
2023/12/14 06:19:54;;;;;;;5.33;4.27;;;;;;;;;;5008798;28;20305;-28
2023/12/14 06:22:23;;;;;;;4.53;3.80;;;;;;;;;;5006744;28;20207;-28
2023/12/14 06:24:50;;;;;;;3.57;3.27;;;;;;;;;;5018915;28;20233;-26
2023/12/14 06:27:17;;;;;;;4.60;4.10;;;;;;;;;;5010028;28;20255;-29
2023/12/14 06:29:44;;;;;;;5.80;5.20;;;;;;;;;;4992880;28;20218;-28
2023/12/14 06:32:12;;;;;;;6.47;3.73;;;;;;;;;;5007517;28;20212;-27
2023/12/14 06:34:39;;;;;;;7.00;4.07;;;;;;;;;;5005935;28;20232;-29
2023/12/14 06:37:06;;;;;;;3.97;3.67;;;;;;;;;;5002759;28;20204;-25
2023/12/14 06:39:35;;;;;;;3.50;3.20;;;;;;;;;;5021759;28;20203;-26
2023/12/14 06:42:02;;;;;;;4.47;4.07;;;;;;;;;;5031371;28;20222;-29
2023/12/14 06:44:30;;;;;;;7.17;4.53;;;;;;;;;;5016403;28;20235;-26
2023/12/14 06:46:58;;;;;;;4.80;4.17;;;;;;;;;;5015294;28;20234;-27
2023/12/14 06:49:25;;;;;;;4.83;4.10;;;;;;;;;;5014051;28;20203;-28
2023/12/14 06:51:52;;;;;;;4.40;4.00;;;;;;;;;;5006917;28;20202;-27
2023/12/14 06:54:19;;;;;;;4.20;3.80;;;;;;;;;;5004779;28;20235;-28
2023/12/14 06:56:47;;;;;;;4.47;3.80;;;;;;;;;;5012284;28;20211;-26
2023/12/14 06:59:15;;;;;;;3.90;3.57;;;;;;;;;;5017832;28;20238;-30
2023/12/14 07:01:42;;;;;;;5.70;4.10;;;;;;;;;;5002887;28;20347;-28
2023/12/14 07:04:10;;;;;;;6.60;4.03;;;;;;;;;;5022987;28;20325;-28
2023/12/14 07:06:37;;;;;;;5.90;4.70;;;;;;;;;;4987225;28;20211;-27
2023/12/14 07:09:05;;;;;;;4.53;4.00;;;;;;;;;;5022267;28;20215;-27
2023/12/14 07:11:32;;;;;;;4.60;4.20;;;;;;;;;;5011814;28;20235;-29
2023/12/14 07:14:00;;;;;;;6.50;4.47;;;;;;;;;;5006863;28;20231;-28
2023/12/14 07:16:27;;;;;;;4.50;4.10;;;;;;;;;;5004267;28;20211;-26
2023/12/14 07:18:54;;;;;;;5.60;4.10;;;;;;;;;;5015746;28;20200;-27
2023/12/14 07:21:22;;;;;;;4.83;3.73;;;;;;;;;;4991977;28;20212;-30
2023/12/14 07:23:49;;;;;;;4.03;3.63;;;;;;;;;;5012898;28;20739;-27
2023/12/14 07:26:16;;;;;;;3.90;3.50;;;;;;;;;;4992852;28;20214;-27
2023/12/14 07:28:43;;;;;;;7.67;4.73;;;;;;;;;;5012896;28;20254;-30
2023/12/14 07:31:11;;;;;;;4.57;4.10;;;;;;;;;;5024535;28;20214;-28
2023/12/14 07:33:39;;;;;;;5.20;4.50;;;;;;;;;;5012823;28;20203;-26
2023/12/14 07:36:06;;;;;;;4.63;4.10;;;;;;;;;;5004531;28;20207;-27
2023/12/14 07:38:33;;;;;;;4.80;4.27;;;;;;;;;;5012934;28;20238;-27
2023/12/14 07:41:09;;;;;;;4.40;3.93;;;;;;;;;;5026114;28;20608;-28
2023/12/14 07:43:36;;;;;;;4.67;3.83;;;;;;;;;;5008067;28;20309;-28
2023/12/14 07:46:03;;;;;;;4.30;3.83;;;;;;;;;;5001558;28;20218;-25
2023/12/14 07:48:32;;;;;;;4.30;3.90;;;;;;;;;;5011504;28;20219;-26
2023/12/14 07:50:59;;;;;;;4.77;4.20;;;;;;;;;;5001311;28;20210;-27
2023/12/14 07:53:26;;;;;;;4.90;4.33;;;;;;;;;;5004438;28;20215;-31
2023/12/14 07:55:53;;;;;;;4.80;3.97;;;;;;;;;;5003139;28;20210;-28
2023/12/14 07:58:21;;;;;;;4.30;3.80;;;;;;;;;;5005787;28;20203;-29
2023/12/14 08:00:48;;;;;;;5.77;4.10;;;;;;;;;;5015752;28;20235;-26
2023/12/14 08:03:15;;;;;;;7.43;5.10;;;;;;;;;;5025362;28;20229;-26
2023/12/14 08:05:44;;;;;;;5.30;4.40;;;;;;;;;;5006732;28;20219;-29
2023/12/14 08:08:19;;;;;;;4.90;4.40;;;;;;;;;;5021572;28;20233;-27
2023/12/14 08:10:46;;;;;;;4.23;3.83;;;;;;;;;;5015980;28;20199;-29
2023/12/14 08:13:13;;;;;;;4.77;3.50;;;;;;;;;;5020302;28;20214;-28
2023/12/14 08:15:51;;;;;;;4.97;4.47;;;;;;;;;;5007559;28;20220;-30
2023/12/14 08:18:18;;;;;;;4.30;3.90;;;;;;;;;;5015583;28;20199;-27
2023/12/14 08:20:47;;;;;;;5.20;4.00;;;;;;;;;;5010642;28;20211;-29
2023/12/14 08:23:14;;;;;;;5.10;4.20;;;;;;;;;;5007199;28;20211;-28
2023/12/14 08:25:41;;;;;;;6.40;4.13;;;;;;;;;;5016964;28;20224;-27
2023/12/14 08:28:08;;;;;;;4.90;4.03;;;;;;;;;;5009221;28;20219;-27
2023/12/14 08:30:35;;;;;;;4.50;4.10;;;;;;;;;;5001342;28;20223;-28
2023/12/14 08:33:02;;;;;;;5.20;4.37;;;;;;;;;;5016153;28;20227;-27
2023/12/14 08:35:29;;;;;;;7.50;4.77;;;;;;;;;;5010768;28;20228;-29
2023/12/14 08:37:59;;;;;;;4.70;4.30;;;;;;;;;;4997914;28;20211;-28
2023/12/14 08:40:26;;;;;;;5.57;4.60;;;;;;;;;;5022966;28;20222;-27
2023/12/14 08:42:53;;;;;;;4.27;3.87;;;;;;;;;;5023537;28;20199;-28
2023/12/14 08:45:21;;;;;;;5.40;4.07;;;;;;;;;;5014073;28;20223;-28
2023/12/14 08:47:48;;;;;;;4.23;3.57;;;;;;;;;;5014080;28;20291;-26
2023/12/14 08:50:15;;;;;;;3.97;3.47;;;;;;;;;;5005039;28;20204;-28
2023/12/14 08:52:42;;;;;;;6.47;3.70;;;;;;;;;;5007028;28;20268;-27
2023/12/14 08:55:11;;;;;;;4.40;4.00;;;;;;;;;;5020043;28;20280;-27
2023/12/14 08:57:38;;;;;;;3.90;3.60;;;;;;;;;;5014862;28;20273;-26
2023/12/14 09:00:08;;;;;;;5.10;4.17;;;;;;;;;;5009311;28;20237;-28
2023/12/14 09:02:35;;;;;;;5.97;4.00;;;;;;;;;;5017402;28;20208;-25
2023/12/14 09:05:02;;;;;;;3.23;3.00;;;;;;;;;;5023601;28;20231;-27
2023/12/14 09:07:29;;;;;;;4.50;3.43;;;;;;;;;;5022192;28;20239;-26
2023/12/14 09:09:56;;;;;;;5.37;4.87;;;;;;;;;;5020889;28;20212;-27
2023/12/14 09:12:25;;;;;;;3.77;3.47;;;;;;;;;;5021248;28;20206;-26
2023/12/14 09:14:52;;;;;;;4.70;4.30;;;;;;;;;;5018089;28;21122;-26
2023/12/14 09:17:19;;;;;;;3.67;3.37;;;;;;;;;;5016199;28;20206;-28
2023/12/14 09:19:46;;;;;;;5.07;4.63;;;;;;;;;;5019927;28;20225;-26
2023/12/14 09:22:13;;;;;;;4.10;3.70;;;;;;;;;;4996333;28;20216;-28
2023/12/14 09:24:40;;;;;;;4.83;3.53;;;;;;;;;;5019107;28;20230;-29
2023/12/14 09:27:08;;;;;;;4.10;3.67;;;;;;;;;;5018873;28;20238;-27
2023/12/14 09:29:36;;;;;;;4.27;3.87;;;;;;;;;;5015877;28;20234;-29
2023/12/14 09:32:03;;;;;;;4.20;3.80;;;;;;;;;;5006229;28;20226;-26
2023/12/14 09:34:31;;;;;;;4.47;3.83;;;;;;;;;;5000148;28;20257;-27
2023/12/14 09:36:58;;;;;;;4.37;3.73;;;;;;;;;;5016605;28;20208;-28
2023/12/14 09:39:27;;;;;;;4.77;4.00;;;;;;;;;;5021860;28;20207;-28
2023/12/14 09:42:02;;;;;;;5.97;4.70;;;;;;;;;;5015645;28;20378;-28
2023/12/14 09:44:29;;;;;;;5.10;4.37;;;;;;;;;;5018253;28;20226;-29
2023/12/14 09:46:58;;;;;;;5.00;3.83;;;;;;;;;;5005697;28;20208;-29
2023/12/14 09:49:29;;;;;;;4.77;4.03;;;;;;;;;;5020337;28;20230;-28
2023/12/14 09:51:56;;;;;;;5.53;4.63;;;;;;;;;;5011156;28;20211;-28
2023/12/14 09:54:23;;;;;;;4.87;4.37;;;;;;;;;;5014310;28;20228;-28
2023/12/14 09:56:52;;;;;;;4.60;4.20;;;;;;;;;;5013874;28;20215;-25
2023/12/14 09:59:19;;;;;;;4.83;4.43;;;;;;;;;;5011401;28;20266;-28
2023/12/14 10:01:46;;;;;;;5.70;5.20;;;;;;;;;;5012649;28;20207;-28
2023/12/14 10:04:16;;;;;;;6.60;4.30;;;;;;;;;;5025050;28;20223;-30
2023/12/14 10:06:44;;;;;;;5.00;4.00;;;;;;;;;;5003569;28;20211;-27
2023/12/14 10:09:13;;;;;;;5.10;4.40;;;;;;;;;;5011638;28;20245;-27
2023/12/14 10:11:40;;;;;;;5.83;4.20;;;;;;;;;;5023292;28;20210;-27
2023/12/14 10:14:19;;;;;;;5.40;4.70;;;;;;;;;;5014276;28;20263;-29
2023/12/14 10:16:46;;;;;;;4.87;4.47;;;;;;;;;;5010596;28;20214;-27
2023/12/14 10:19:15;;;;;;;8.30;4.60;;;;;;;;;;5024411;28;20237;-28
2023/12/14 10:21:42;;;;;;;5.47;4.60;;;;;;;;;;5004431;28;20207;-27
2023/12/14 10:24:09;;;;;;;4.77;4.27;;;;;;;;;;5016901;28;20238;-29
2023/12/14 10:26:36;;;;;;;4.73;4.33;;;;;;;;;;5024234;28;20252;-26
2023/12/14 10:29:13;;;;;;;4.87;4.37;;;;;;;;;;4994182;28;20240;-27
2023/12/14 10:31:40;;;;;;;5.23;4.13;;;;;;;;;;5008426;28;20302;-28
2023/12/14 10:34:07;;;;;;;5.00;4.17;;;;;;;;;;5022547;28;20230;-26
2023/12/14 10:36:36;;;;;;;4.37;3.97;;;;;;;;;;4992258;28;20216;-29
2023/12/14 10:39:05;;;;;;;4.37;3.90;;;;;;;;;;5006023;28;20797;-27
2023/12/14 10:41:33;;;;;;;4.50;3.93;;;;;;;;;;5020247;28;20249;-29
2023/12/14 10:44:02;;;;;;;5.00;4.20;;;;;;;;;;5004550;28;20226;-28
2023/12/14 10:46:29;;;;;;;4.90;4.13;;;;;;;;;;5017246;28;20218;-30
2023/12/14 10:49:13;;;;;;;4.17;3.77;;;;;;;;;;5012823;28;20231;-27
2023/12/14 10:51:42;;;;;;;3.90;3.40;;;;;;;;;;5005985;28;20206;-31
2023/12/14 10:54:10;;;;;;;5.20;4.17;;;;;;;;;;5006612;28;20230;-29
2023/12/14 10:56:37;;;;;;;4.43;3.90;;;;;;;;;;5014393;28;20290;-29
2023/12/14 10:59:04;;;;;;;4.83;3.93;;;;;;;;;;5021082;28;20202;-30
2023/12/14 11:01:35;;;;;;;4.37;3.60;;;;;;;;;;5008248;28;20210;-28
2023/12/14 11:04:02;;;;;;;6.10;3.80;;;;;;;;;;5021426;28;20254;-27
2023/12/14 11:06:30;;;;;;;4.20;3.40;;;;;;;;;;5008915;28;20206;-28
2023/12/14 11:08:59;;;;;;;4.60;3.70;;;;;;;;;;5018331;28;20230;-30
2023/12/14 11:11:30;;;;;;;3.63;3.33;;;;;;;;;;5019845;28;20206;-29
2023/12/14 11:13:57;;;;;;;4.33;3.90;;;;;;;;;;5012658;28;20258;-30
2023/12/14 11:16:24;;;;;;;4.30;3.67;;;;;;;;;;5014536;28;20198;-26
2023/12/14 11:19:20;;;;;;;6.27;4.10;;;;;;;;;;5016896;28;20195;-27
2023/12/14 11:21:47;;;;;;;5.17;3.27;;;;;;;;;;5004530;28;20209;-28
2023/12/14 11:24:16;;;;;;;4.90;4.40;;;;;;;;;;5016386;28;20245;-27
2023/12/14 11:26:43;;;;;;;4.73;4.13;;;;;;;;;;5014069;28;20199;-29
2023/12/14 11:29:11;;;;;;;4.90;4.40;;;;;;;;;;5007280;28;20227;-26
2023/12/14 11:31:38;;;;;;;4.73;4.00;;;;;;;;;;5007807;28;20211;-27
2023/12/14 11:34:07;;;;;;;4.43;4.00;;;;;;;;;;5019148;28;20227;-27
2023/12/14 11:36:35;;;;;;;5.27;4.20;;;;;;;;;;4999130;28;20211;-29
2023/12/14 11:39:05;;;;;;;5.17;4.30;;;;;;;;;;5003051;28;20242;-26
2023/12/14 11:41:35;;;;;;;6.23;4.43;;;;;;;;;;5019258;28;20207;-25
2023/12/14 11:44:02;;;;;;;3.93;3.53;;;;;;;;;;5006126;28;20285;-27
2023/12/14 11:46:30;;;;;;;5.20;4.03;;;;;;;;;;5017578;28;20208;-27
2023/12/14 11:48:58;;;;;;;4.70;4.20;;;;;;;;;;5019045;28;20270;-27
2023/12/14 11:51:26;;;;;;;4.27;3.87;;;;;;;;;;5012007;28;20199;-27
2023/12/14 11:53:53;;;;;;;4.23;3.83;;;;;;;;;;5019181;28;20219;-26
2023/12/14 11:56:22;;;;;;;4.90;3.97;;;;;;;;;;5011538;28;20218;-31
2023/12/14 11:58:51;;;;;;;6.63;3.60;;;;;;;;;;5017734;28;20194;-27
2023/12/14 12:01:18;;;;;;;5.10;4.20;;;;;;;;;;5001237;28;20204;-29
2023/12/14 12:03:46;;;;;;;4.27;3.87;;;;;;;;;;5007840;28;20207;-27
2023/12/14 12:06:21;;;;;;;6.27;3.90;;;;;;;;;;5011007;28;20270;-28
2023/12/14 12:08:48;;;;;;;4.67;3.77;;;;;;;;;;5018212;28;20214;-29
2023/12/14 12:11:19;;;;;;;5.10;3.93;;;;;;;;;;5019593;28;20218;-28
2023/12/14 12:13:51;;;;;;;5.23;4.03;;;;;;;;;;5018608;28;20207;-27
2023/12/14 12:16:20;;;;;;;5.03;4.17;;;;;;;;;;5011161;28;20202;-27
2023/12/14 12:18:47;;;;;;;4.60;4.20;;;;;;;;;;5015809;28;20266;-26
2023/12/14 12:21:14;;;;;;;5.00;4.10;;;;;;;;;;4997025;28;20207;-28
2023/12/14 12:23:41;;;;;;;6.20;4.57;;;;;;;;;;5011765;28;20207;-26
2023/12/14 12:26:09;;;;;;;5.93;4.23;;;;;;;;;;5011253;28;20219;-27
2023/12/14 12:28:36;;;;;;;7.70;4.27;;;;;;;;;;5010120;28;20219;-30
2023/12/14 12:31:04;;;;;;;4.80;4.20;;;;;;;;;;5024720;28;20213;-29
2023/12/14 12:33:37;;;;;;;7.30;4.90;;;;;;;;;;5022453;28;20256;-28
2023/12/14 12:36:05;;;;;;;8.60;4.57;;;;;;;;;;5006885;28;20203;-29
2023/12/14 12:38:32;;;;;;;6.20;4.53;;;;;;;;;;5013307;28;20207;-28
2023/12/14 12:41:00;;;;;;;7.00;4.80;;;;;;;;;;5009059;28;20218;-29
2023/12/14 12:43:27;;;;;;;5.67;4.57;;;;;;;;;;5005821;28;20286;-27
2023/12/14 12:45:54;;;;;;;6.50;4.80;;;;;;;;;;5010073;28;20204;-26
2023/12/14 12:48:21;;;;;;;6.77;4.67;;;;;;;;;;5025895;28;20210;-28
2023/12/14 12:50:50;;;;;;;6.63;4.43;;;;;;;;;;5003975;28;20205;-27
2023/12/14 12:53:17;;;;;;;8.70;5.00;;;;;;;;;;5004730;28;20203;-29
2023/12/14 12:55:54;;;;;;;15.67;9.40;;;;;;;;;;5013236;28;20231;-27
2023/12/14 12:58:21;;;;;;;10.77;4.13;;;;;;;;;;5006726;28;20203;-28
2023/12/14 13:00:48;;;;;;;5.50;3.93;;;;;;;;;;5009708;28;20208;-29
2023/12/14 13:03:15;;;;;;;2.10;1.87;;;;;;;;;;5020828;28;20200;-27
2023/12/14 13:05:43;;;;;;;3.17;2.80;;;;;;;;;;5003267;28;20227;-28
2023/12/14 13:08:11;;;;;;;4.10;3.50;;;;;;;;;;5000706;28;20215;-29
2023/12/14 13:10:39;;;;;;;4.93;3.00;;;;;;;;;;5017076;28;20338;-25
2023/12/14 13:13:08;;;;;;;3.73;3.17;;;;;;;;;;5013344;28;20211;-29
2023/12/14 13:15:36;;;;;;;3.43;3.07;;;;;;;;;;5006210;28;20310;-28
2023/12/14 13:18:03;;;;;;;7.20;3.13;;;;;;;;;;5011813;28;20217;-29
2023/12/14 13:20:30;;;;;;;5.77;3.50;;;;;;;;;;5001938;28;20211;-28
2023/12/14 13:22:57;;;;;;;9.07;5.60;;;;;;;;;;5005976;28;20294;-27
2023/12/14 13:25:26;;;;;;;12.30;7.57;;;;;;;;;;5014738;28;20227;-29
2023/12/14 13:27:54;;;;;;;4.33;3.50;;;;;;;;;;5025712;28;20203;-28
2023/12/14 13:30:22;;;;;;;4.37;3.53;;;;;;;;;;5010919;28;20226;-26
2023/12/14 13:32:49;;;;;;;3.03;2.77;;;;;;;;;;5017857;28;20269;-29
2023/12/14 13:35:16;;;;;;;5.47;3.93;;;;;;;;;;5017640;28;20242;-28
2023/12/14 13:37:43;;;;;;;4.50;2.50;;;;;;;;;;5017687;28;20207;-27
2023/12/14 13:40:12;;;;;;;4.80;2.60;;;;;;;;;;4998349;28;20207;-28
2023/12/14 13:42:41;;;;;;;2.70;2.10;;;;;;;;;;4998622;28;20375;-29
2023/12/14 13:45:10;;;;;;;3.50;2.00;;;;;;;;;;5011118;28;20227;-29
2023/12/14 13:47:37;;;;;;;4.67;2.67;;;;;;;;;;5010961;28;20211;-29
2023/12/14 13:50:05;;;;;;;5.33;2.90;;;;;;;;;;5001571;28;20231;-28
2023/12/14 13:52:32;;;;;;;3.60;2.80;;;;;;;;;;5020286;28;20202;-28
2023/12/14 13:54:59;;;;;;;2.97;2.30;;;;;;;;;;5023032;28;20306;-28
2023/12/14 13:57:27;;;;;;;6.10;2.97;;;;;;;;;;5006687;28;20214;-26
2023/12/14 13:59:55;;;;;;;2.33;2.13;;;;;;;;;;5007637;28;20211;-28
2023/12/14 14:02:23;;;;;;;3.20;2.50;;;;;;;;;;5008935;28;20217;-29
2023/12/14 14:04:52;;;;;;;2.70;2.03;;;;;;;;;;5015760;28;20240;-27
2023/12/14 14:07:19;;;;;;;2.60;2.30;;;;;;;;;;5009728;28;20209;-27
2023/12/14 14:09:46;;;;;;;2.80;2.50;;;;;;;;;;5023855;28;20226;-26
2023/12/14 14:12:13;;;;;;;4.37;2.80;;;;;;;;;;5015027;28;20221;-28
2023/12/14 14:14:40;;;;;;;4.77;3.80;;;;;;;;;;5011852;28;20238;-26
2023/12/14 14:17:09;;;;;;;3.33;2.77;;;;;;;;;;5001748;28;20217;-28
2023/12/14 14:19:36;;;;;;;3.43;2.50;;;;;;;;;;5004374;28;20202;-29
2023/12/14 14:22:04;;;;;;;6.20;5.23;;;;;;;;;;5003590;28;20207;-29
2023/12/14 14:24:32;;;;;;;6.03;4.40;;;;;;;;;;5016908;28;20252;-27
2023/12/14 14:26:59;;;;;;;3.80;3.33;;;;;;;;;;5015692;28;20215;-27
2023/12/14 14:29:26;;;;;;;2.03;1.73;;;;;;;;;;5010062;28;20314;-28
2023/12/14 14:31:53;;;;;;;2.70;2.10;;;;;;;;;;5011597;28;20208;-27
2023/12/14 14:34:23;;;;;;;2.77;1.57;;;;;;;;;;5013077;28;20246;-27
2023/12/14 14:36:54;;;;;;;3.53;2.00;;;;;;;;;;5001342;28;20214;-29
2023/12/14 14:39:21;;;;;;;4.03;1.93;;;;;;;;;;5008653;28;20202;-27
2023/12/14 14:41:49;;;;;;;2.70;2.13;;;;;;;;;;5006034;28;20230;-28
2023/12/14 14:44:16;;;;;;;1.83;1.67;;;;;;;;;;5009899;28;20222;-29
2023/12/14 14:46:43;;;;;;;3.27;2.80;;;;;;;;;;5005182;28;20293;-26
2023/12/14 14:49:10;;;;;;;7.80;6.07;;;;;;;;;;5004614;28;20208;-26